createdAt,value
2019-04-07T00:01:52.981Z,26.90
2019-04-07T00:04:22.833Z,26.87
2019-04-07T00:06:53.287Z,25.27
2019-04-07T00:09:24.134Z,28.03
2019-04-07T00:11:54.011Z,28.03
2019-04-07T00:14:24.829Z,28.83
2019-04-07T00:16:55.869Z,26.67
2019-04-07T00:19:25.711Z,28.20
2019-04-07T00:21:55.757Z,26.60
2019-04-07T00:24:25.686Z,28.17
2019-04-07T00:26:55.674Z,30.47
2019-04-07T00:29:25.521Z,28.27
2019-04-07T00:31:55.752Z,29.23
2019-04-07T00:34:25.974Z,27.97
2019-04-07T00:36:58.825Z,28.07
2019-04-07T00:39:28.837Z,26.87
2019-04-07T00:41:59.175Z,26.87
2019-04-07T00:44:29.139Z,28.50
2019-04-07T00:46:59.782Z,26.77
2019-04-07T00:49:29.736Z,27.30
2019-04-07T00:52:01.620Z,26.30
2019-04-07T00:54:31.537Z,26.30
2019-04-07T00:57:01.924Z,27.07
2019-04-07T00:59:32.006Z,28.67
2019-04-07T01:02:02.519Z,25.50
2019-04-07T01:04:32.508Z,25.37
2019-04-07T01:07:02.705Z,28.17
2019-04-07T01:09:32.672Z,25.83
2019-04-07T01:12:02.905Z,26.13
2019-04-07T01:14:33.553Z,25.17
2019-04-07T01:17:03.701Z,24.33
2019-04-07T01:19:33.510Z,24.47
2019-04-07T01:22:03.909Z,24.73
2019-04-07T01:24:34.126Z,23.23
2019-04-07T01:27:04.019Z,24.57
2019-04-07T01:29:34.170Z,25.97
2019-04-07T01:32:04.105Z,25.23
2019-04-07T01:34:34.059Z,24.40
2019-04-07T01:37:04.458Z,23.47
2019-04-07T01:39:34.928Z,24.23
2019-04-07T01:42:16.932Z,25.83
2019-04-07T01:45:06.120Z,24.83
2019-04-07T01:47:45.199Z,25.43
2019-04-07T01:50:27.496Z,23.57
2019-04-07T01:53:16.393Z,24.70
2019-04-07T01:55:57.583Z,24.73
2019-04-07T01:58:49.382Z,24.10
2019-04-07T02:01:36.331Z,24.17
2019-04-07T02:04:23.680Z,24.07
2019-04-07T02:07:24.709Z,24.73
2019-04-07T02:10:13.684Z,24.53
2019-04-07T02:13:05.952Z,23.80
2019-04-07T02:15:54.932Z,24.63
2019-04-07T02:18:44.280Z,25.63
2019-04-07T02:21:22.248Z,24.17
2019-04-07T02:24:10.240Z,24.60
2019-04-07T02:26:45.525Z,25.23
2019-04-07T02:29:40.149Z,24.03
2019-04-07T02:32:27.862Z,24.50
2019-04-07T02:35:34.875Z,23.00
2019-04-07T02:38:11.197Z,23.97
2019-04-07T02:41:04.085Z,24.57
2019-04-07T02:43:48.771Z,23.43
2019-04-07T02:46:44.109Z,23.40
2019-04-07T02:49:33.893Z,22.57
2019-04-07T02:52:25.725Z,23.87
2019-04-07T02:55:17.369Z,22.80
2019-04-07T02:58:06.177Z,24.27
2019-04-07T03:00:44.537Z,22.77
2019-04-07T03:03:36.863Z,21.40
2019-04-07T03:06:32.502Z,21.40
2019-04-07T03:09:07.524Z,21.57
2019-04-07T03:11:52.560Z,21.23
2019-04-07T03:14:31.753Z,21.00
2019-04-07T03:17:12.556Z,22.67
2019-04-07T03:20:10.430Z,20.83
2019-04-07T03:22:58.767Z,21.50
2019-04-07T03:25:56.843Z,21.57
2019-04-07T03:28:54.592Z,21.27
2019-04-07T03:31:41.156Z,21.27
2019-04-07T03:34:33.409Z,20.10
2019-04-07T03:37:42.229Z,21.03
2019-04-07T03:40:22.201Z,21.23
2019-04-07T03:43:23.864Z,22.40
2019-04-07T03:46:10.644Z,21.53
2019-04-07T03:48:45.915Z,21.50
2019-04-07T03:51:34.804Z,20.73
2019-04-07T03:54:22.793Z,20.83
2019-04-07T03:57:17.814Z,20.57
2019-04-07T04:00:09.628Z,21.97
2019-04-07T04:02:59.611Z,20.10
2019-04-07T04:05:47.706Z,21.40
2019-04-07T04:08:24.490Z,20.13
2019-04-07T04:11:28.659Z,20.33
2019-04-07T04:14:07.992Z,20.50
2019-04-07T04:16:44.558Z,20.73
2019-04-07T04:19:14.748Z,20.53
2019-04-07T04:21:44.889Z,19.97
2019-04-07T04:24:15.430Z,19.17
2019-04-07T04:26:47.536Z,19.37
2019-04-07T04:29:17.483Z,18.53
2019-04-07T04:31:47.496Z,19.13
2019-04-07T04:34:17.383Z,19.77
2019-04-07T04:36:47.992Z,20.10
2019-04-07T04:39:19.636Z,21.17
2019-04-07T04:41:49.289Z,20.30
2019-04-07T04:44:24.109Z,19.07
2019-04-07T04:46:53.779Z,18.00
2019-04-07T04:49:23.545Z,19.47
2019-04-07T04:51:54.230Z,18.87
2019-04-07T04:54:24.608Z,18.77
2019-04-07T04:56:54.416Z,18.60
2019-04-07T04:59:24.311Z,18.83
2019-04-07T05:01:54.171Z,17.73
2019-04-07T05:04:24.186Z,18.20
2019-04-07T05:06:54.073Z,17.80
2019-04-07T05:09:24.462Z,19.13
2019-04-07T05:11:54.410Z,18.40
2019-04-07T05:14:24.255Z,19.77
2019-04-07T05:16:54.762Z,17.83
2019-04-07T05:19:24.742Z,19.07
2019-04-07T05:21:55.888Z,19.57
2019-04-07T05:24:25.860Z,18.63
2019-04-07T05:26:55.795Z,19.73
2019-04-07T05:29:26.642Z,19.23
2019-04-07T05:31:56.643Z,19.43
2019-04-07T05:34:26.750Z,19.73
2019-04-07T05:36:56.560Z,20.53
2019-04-07T05:39:26.400Z,18.73
2019-04-07T05:41:56.258Z,19.30
2019-04-07T05:44:26.638Z,18.83
2019-04-07T05:46:56.981Z,18.73
2019-04-07T05:49:27.097Z,19.30
2019-04-07T05:52:04.137Z,18.07
2019-04-07T05:54:31.681Z,17.57
2019-04-07T05:57:02.394Z,19.23
2019-04-07T05:59:32.836Z,18.37
2019-04-07T06:02:03.757Z,17.83
2019-04-07T06:04:36.539Z,17.37
2019-04-07T06:07:07.023Z,17.30
2019-04-07T06:09:38.170Z,17.90
2019-04-07T06:12:09.717Z,17.13
2019-04-07T06:14:40.981Z,18.73
2019-04-07T06:17:12.015Z,18.77
2019-04-07T06:19:42.292Z,18.30
2019-04-07T06:22:12.303Z,18.13
2019-04-07T06:24:42.146Z,17.77
2019-04-07T06:27:13.815Z,15.77
2019-04-07T06:29:43.655Z,15.07
2019-04-07T06:32:14.317Z,15.83
2019-04-07T06:34:44.479Z,15.60
2019-04-07T06:37:14.522Z,15.80
2019-04-07T06:39:45.235Z,14.43
2019-04-07T06:42:16.004Z,14.70
2019-04-07T06:44:45.843Z,13.87
2019-04-07T06:47:24.057Z,15.03
2019-04-07T06:50:18.990Z,15.20
2019-04-07T06:53:17.554Z,14.47
2019-04-07T06:56:07.278Z,15.07
2019-04-07T06:59:11.894Z,15.17
2019-04-07T07:01:59.457Z,15.80
2019-04-07T07:04:45.281Z,13.00
2019-04-07T07:07:31.406Z,13.67
2019-04-07T07:10:26.794Z,13.60
2019-04-07T07:13:25.641Z,12.57
2019-04-07T07:16:07.979Z,12.67
2019-04-07T07:18:54.761Z,12.63
2019-04-07T07:21:42.514Z,12.63
2019-04-07T07:24:15.712Z,12.33
2019-04-07T07:26:46.265Z,11.53
2019-04-07T07:29:17.212Z,11.90
2019-04-07T07:31:48.889Z,11.90
2019-04-07T07:34:19.563Z,12.33
2019-04-07T07:36:52.263Z,11.63
2019-04-07T07:39:22.970Z,11.27
2019-04-07T07:41:53.044Z,11.83
2019-04-07T07:44:23.484Z,11.17
2019-04-07T07:46:53.780Z,11.53
2019-04-07T07:49:23.716Z,10.50
2019-04-07T07:51:53.569Z,10.63
2019-04-07T07:54:23.409Z,9.07
2019-04-07T07:56:55.925Z,9.10
2019-04-07T07:59:30.698Z,8.30
2019-04-07T08:01:58.767Z,9.00
2019-04-07T08:04:29.154Z,8.90
2019-04-07T08:06:59.232Z,8.73
2019-04-07T08:09:29.399Z,8.80
2019-04-07T08:12:01.626Z,10.00
2019-04-07T08:14:31.513Z,10.13
2019-04-07T08:17:03.366Z,8.87
2019-04-07T08:19:33.033Z,8.70
2019-04-07T08:22:03.083Z,10.63
2019-04-07T08:24:33.000Z,9.20
2019-04-07T08:27:02.920Z,8.97
2019-04-07T08:29:33.434Z,9.17
2019-04-07T08:32:04.390Z,8.50
2019-04-07T08:34:34.870Z,9.63
2019-04-07T08:37:04.834Z,8.87
2019-04-07T08:39:35.433Z,8.17
2019-04-07T08:42:09.833Z,9.37
2019-04-07T08:44:38.018Z,9.40
2019-04-07T08:47:11.438Z,9.23
2019-04-07T08:49:40.368Z,9.30
2019-04-07T08:52:12.325Z,8.67
2019-04-07T08:54:42.167Z,7.67
2019-04-07T08:57:13.047Z,8.90
2019-04-07T08:59:43.134Z,9.00
2019-04-07T09:02:13.662Z,7.87
2019-04-07T09:04:46.604Z,8.07
2019-04-07T09:07:15.455Z,8.13
2019-04-07T09:09:47.832Z,7.70
2019-04-07T09:12:17.491Z,7.63
2019-04-07T09:14:47.403Z,8.47
2019-04-07T09:17:45.794Z,7.60
2019-04-07T09:20:36.160Z,7.93
2019-04-07T09:23:14.690Z,8.23
2019-04-07T09:26:09.501Z,7.23
2019-04-07T09:28:45.556Z,7.57
2019-04-07T09:31:52.970Z,7.13
2019-04-07T09:34:53.072Z,6.83
2019-04-07T09:37:29.065Z,6.97
2019-04-07T09:40:05.768Z,7.13
2019-04-07T09:42:50.786Z,7.10
2019-04-07T09:45:43.625Z,7.17
2019-04-07T09:48:26.787Z,7.47
2019-04-07T09:51:07.103Z,7.80
2019-04-07T09:54:01.509Z,6.73
2019-04-07T09:56:57.235Z,6.33
2019-04-07T09:59:48.588Z,6.37
2019-04-07T10:02:37.258Z,5.03
2019-04-07T10:05:44.848Z,12.53
2019-04-07T10:08:37.383Z,6.87
2019-04-07T10:11:29.566Z,4.60
2019-04-07T10:14:18.466Z,3.63
2019-04-07T10:17:05.535Z,3.47
2019-04-07T10:19:53.984Z,3.63
2019-04-07T10:22:34.069Z,3.33
2019-04-07T10:25:15.515Z,3.30
2019-04-07T10:28:10.578Z,3.10
2019-04-07T10:30:50.795Z,2.93
2019-04-07T10:33:42.725Z,4.50
2019-04-07T10:36:27.049Z,3.30
2019-04-07T10:39:20.907Z,3.20
2019-04-07T10:42:08.783Z,3.47
2019-04-07T10:44:58.329Z,3.93
2019-04-07T10:47:56.719Z,3.93
2019-04-07T10:50:43.777Z,3.30
2019-04-07T10:53:23.364Z,3.80
2019-04-07T10:55:59.882Z,3.53
2019-04-07T10:58:41.486Z,4.17
2019-04-07T11:01:21.109Z,2.77
2019-04-07T11:04:07.577Z,3.60
2019-04-07T11:06:54.319Z,2.97
2019-04-07T11:09:49.528Z,3.20
2019-04-07T11:12:41.399Z,3.27
2019-04-07T11:15:28.263Z,3.40
2019-04-07T11:18:22.984Z,2.83
2019-04-07T11:21:09.522Z,3.03
2019-04-07T11:23:47.523Z,3.37
2019-04-07T11:26:42.862Z,2.90
2019-04-07T11:29:32.584Z,3.40
2019-04-07T11:32:19.936Z,2.90
2019-04-07T11:35:06.072Z,3.37
2019-04-07T11:37:55.944Z,4.07
2019-04-07T11:40:48.931Z,2.47
2019-04-07T11:43:48.991Z,2.57
2019-04-07T11:46:36.525Z,3.03
2019-04-07T11:49:34.559Z,4.17
2019-04-07T11:52:15.757Z,2.40
2019-04-07T11:55:08.570Z,2.00
2019-04-07T11:58:06.425Z,1.77
2019-04-07T12:00:59.587Z,2.40
2019-04-07T12:03:59.833Z,2.40
2019-04-07T12:06:51.632Z,1.70
2019-04-07T12:09:39.624Z,2.57
2019-04-07T12:12:31.417Z,3.57
2019-04-07T12:15:09.969Z,2.40
2019-04-07T12:17:53.406Z,2.37
2019-04-07T12:20:35.300Z,2.93
2019-04-07T12:23:27.826Z,2.33
2019-04-07T12:26:34.681Z,2.00
2019-04-07T12:29:37.298Z,3.43
2019-04-07T12:32:30.323Z,2.20
2019-04-07T12:35:08.296Z,2.63
2019-04-07T12:38:01.979Z,2.87
2019-04-07T12:40:52.917Z,1.90
2019-04-07T12:43:40.395Z,1.90
2019-04-07T12:46:41.827Z,2.40
2019-04-07T12:49:23.157Z,3.03
2019-04-07T12:52:12.736Z,2.17
2019-04-07T12:55:02.374Z,3.80
2019-04-07T12:57:42.542Z,2.33
2019-04-07T13:00:57.860Z,2.30
2019-04-07T13:03:40.806Z,2.30
2019-04-07T13:06:22.227Z,1.97
2019-04-07T13:09:20.403Z,2.13
2019-04-07T13:12:24.617Z,2.43
2019-04-07T13:15:17.053Z,1.80
2019-04-07T13:18:07.728Z,2.10
2019-04-07T13:21:05.582Z,1.87
2019-04-07T13:23:51.454Z,2.40
2019-04-07T13:26:37.619Z,2.00
2019-04-07T13:29:23.744Z,2.10
2019-04-07T13:32:18.765Z,2.30
2019-04-07T13:35:06.303Z,3.23
2019-04-07T13:38:04.469Z,2.87
2019-04-07T13:40:46.904Z,2.00
2019-04-07T13:43:42.277Z,2.93
2019-04-07T13:46:27.834Z,2.80
2019-04-07T13:49:27.895Z,2.30
2019-04-07T13:52:19.293Z,2.67
2019-04-07T13:55:04.540Z,1.80
2019-04-07T13:57:59.534Z,2.07
2019-04-07T14:00:46.368Z,2.20
2019-04-07T14:03:37.138Z,2.20
2019-04-07T14:06:17.448Z,1.97
2019-04-07T14:09:06.695Z,2.30
2019-04-07T14:12:04.236Z,1.90
2019-04-07T14:14:42.610Z,2.10
2019-04-07T14:17:30.772Z,1.93
2019-04-07T14:20:20.419Z,2.60
2019-04-07T14:23:08.513Z,2.20
2019-04-07T14:25:52.607Z,2.20
2019-04-07T14:28:40.133Z,2.00
2019-04-07T14:31:44.456Z,2.27
2019-04-07T14:34:42.345Z,3.23
2019-04-07T14:37:18.701Z,2.13
2019-04-07T14:40:07.559Z,2.00
2019-04-07T14:42:57.123Z,2.67
2019-04-07T14:45:48.212Z,2.17
2019-04-07T14:48:37.505Z,2.20
2019-04-07T14:51:29.502Z,2.30
2019-04-07T14:54:28.178Z,2.20
2019-04-07T14:57:10.384Z,2.67
2019-04-07T15:00:00.002Z,2.53
2019-04-07T15:02:30.220Z,2.10
2019-04-07T15:05:05.014Z,2.17
2019-04-07T15:07:52.764Z,1.83
2019-04-07T15:10:36.138Z,2.40
2019-04-07T15:13:10.729Z,2.33
2019-04-07T15:15:41.696Z,2.70
2019-04-07T15:18:12.714Z,2.40
2019-04-07T15:20:43.163Z,2.60
2019-04-07T15:23:13.358Z,2.47
2019-04-07T15:25:45.999Z,3.60
2019-04-07T15:28:15.458Z,2.00
2019-04-07T15:30:47.939Z,2.10
2019-04-07T15:33:17.734Z,2.03
2019-04-07T15:35:49.434Z,2.97
2019-04-07T15:38:23.778Z,2.30
2019-04-07T15:40:51.986Z,2.20
2019-04-07T15:43:22.368Z,2.47
2019-04-07T15:45:52.426Z,2.63
2019-04-07T15:48:25.794Z,3.37
2019-04-07T15:50:54.144Z,2.07
2019-04-07T15:53:24.550Z,1.80
2019-04-07T15:56:02.239Z,1.90
2019-04-07T15:58:29.709Z,1.90
2019-04-07T16:01:00.223Z,2.27
2019-04-07T16:03:32.005Z,2.80
2019-04-07T16:06:01.862Z,1.90
2019-04-07T16:08:34.892Z,1.80
2019-04-07T16:11:05.065Z,3.70
2019-04-07T16:13:35.796Z,2.40
2019-04-07T16:16:05.869Z,3.03
2019-04-07T16:18:39.469Z,2.00
2019-04-07T16:21:10.935Z,1.80
2019-04-07T16:23:41.791Z,2.20
2019-04-07T16:26:11.905Z,2.23
2019-04-07T16:28:45.981Z,2.43
2019-04-07T16:31:13.577Z,2.00
2019-04-07T16:33:43.610Z,2.43
2019-04-07T16:36:13.646Z,2.03
2019-04-07T16:38:44.350Z,2.13
2019-04-07T16:41:15.040Z,2.30
2019-04-07T16:43:45.794Z,2.57
2019-04-07T16:46:20.369Z,2.10
2019-04-07T16:48:47.703Z,2.60
2019-04-07T16:51:17.906Z,2.60
2019-04-07T16:53:48.857Z,3.63
2019-04-07T16:56:20.675Z,4.20
2019-04-07T16:58:50.402Z,4.13
2019-04-07T17:01:20.304Z,4.07
2019-04-07T17:03:50.985Z,3.13
2019-04-07T17:06:20.973Z,3.53
2019-04-07T17:08:53.201Z,2.90
2019-04-07T17:11:23.673Z,3.37
2019-04-07T17:13:53.833Z,3.23
2019-04-07T17:16:25.034Z,3.57
2019-04-07T17:18:56.177Z,5.03
2019-04-07T17:21:27.643Z,2.80
2019-04-07T17:23:58.125Z,2.33
2019-04-07T17:26:28.298Z,3.23
2019-04-07T17:28:59.534Z,3.17
2019-04-07T17:31:32.069Z,3.10
2019-04-07T17:34:03.847Z,2.77
2019-04-07T17:36:33.325Z,2.70
2019-04-07T17:39:18.620Z,2.80
2019-04-07T17:41:50.409Z,2.40
2019-04-07T17:44:39.194Z,2.53
2019-04-07T17:47:46.015Z,3.23
2019-04-07T17:50:40.985Z,3.27
2019-04-07T17:53:32.745Z,2.27
2019-04-07T17:56:18.899Z,2.87
2019-04-07T17:59:08.741Z,2.63
2019-04-07T18:02:02.417Z,2.43
2019-04-07T18:04:50.066Z,3.20
2019-04-07T18:07:36.108Z,2.50
2019-04-07T18:10:23.795Z,2.80
2019-04-07T18:13:07.809Z,3.03
2019-04-07T18:16:00.000Z,3.70
2019-04-07T18:18:59.609Z,3.40
2019-04-07T18:21:51.932Z,5.13
2019-04-07T18:24:26.082Z,2.83
2019-04-07T18:27:15.818Z,3.40
2019-04-07T18:30:03.474Z,4.13
2019-04-07T18:32:51.887Z,4.10
2019-04-07T18:35:40.952Z,3.93
2019-04-07T18:38:42.792Z,3.67
2019-04-07T18:41:36.278Z,4.47
2019-04-07T18:44:20.455Z,3.87
2019-04-07T18:47:05.323Z,3.23
2019-04-07T18:49:52.569Z,3.43
2019-04-07T18:52:44.587Z,4.40
2019-04-07T18:55:37.143Z,3.57
2019-04-07T18:58:21.287Z,3.73
2019-04-07T19:01:16.912Z,4.70
2019-04-07T19:04:06.635Z,4.33
2019-04-07T19:06:58.291Z,3.50
2019-04-07T19:10:09.631Z,3.50
2019-04-07T19:13:05.030Z,4.77
2019-04-07T19:15:47.427Z,7.67
2019-04-07T19:18:36.586Z,4.23
2019-04-07T19:21:31.586Z,4.30
2019-04-07T19:24:34.380Z,3.60
2019-04-07T19:27:33.218Z,3.43
2019-04-07T19:30:31.277Z,3.00
2019-04-07T19:33:32.447Z,3.07
2019-04-07T19:36:16.701Z,4.03
2019-04-07T19:39:04.808Z,3.67
2019-04-07T19:41:45.205Z,4.73
2019-04-07T19:44:38.958Z,3.83
2019-04-07T19:47:18.281Z,3.90
2019-04-07T19:50:09.771Z,3.67
2019-04-07T19:53:10.497Z,4.37
2019-04-07T19:56:08.226Z,4.43
2019-04-07T19:59:01.988Z,4.27
2019-04-07T20:01:50.295Z,4.53
2019-04-07T20:04:35.979Z,4.17
2019-04-07T20:07:40.033Z,4.97
2019-04-07T20:10:24.537Z,4.93
2019-04-07T20:13:09.168Z,5.27
2019-04-07T20:15:57.497Z,5.37
2019-04-07T20:18:50.423Z,4.73
2019-04-07T20:21:40.845Z,5.50
2019-04-07T20:24:38.394Z,5.07
2019-04-07T20:27:28.563Z,5.57
2019-04-07T20:30:17.546Z,8.90
2019-04-07T20:32:56.771Z,4.97
2019-04-07T20:35:37.667Z,4.13
2019-04-07T20:38:33.419Z,4.17
2019-04-07T20:41:16.105Z,3.77
2019-04-07T20:44:07.642Z,4.60
2019-04-07T20:47:08.629Z,3.83
2019-04-07T20:49:56.828Z,6.23
2019-04-07T20:52:41.452Z,4.70
2019-04-07T20:55:47.680Z,4.10
2019-04-07T20:58:56.671Z,5.80
2019-04-07T21:01:46.789Z,5.23
2019-04-07T21:04:41.778Z,7.23
2019-04-07T21:07:29.848Z,3.73
2019-04-07T21:10:23.111Z,5.63
2019-04-07T21:13:19.276Z,4.47
2019-04-07T21:16:10.275Z,4.73
2019-04-07T21:19:14.367Z,4.33
2019-04-07T21:22:15.677Z,4.60
2019-04-07T21:25:05.769Z,3.77
2019-04-07T21:27:53.228Z,3.83
2019-04-07T21:30:36.700Z,4.20
2019-04-07T21:33:32.430Z,3.80
2019-04-07T21:36:28.147Z,4.10
2019-04-07T21:39:30.456Z,3.60
2019-04-07T21:42:22.003Z,3.53
2019-04-07T21:45:03.924Z,3.47
2019-04-07T21:47:44.795Z,5.40
2019-04-07T21:50:40.035Z,4.60
2019-04-07T21:53:32.079Z,3.80
2019-04-07T21:56:36.945Z,4.70
2019-04-07T21:59:33.753Z,4.03
2019-04-07T22:02:12.124Z,3.93
2019-04-07T22:05:01.772Z,4.33
2019-04-07T22:07:47.995Z,5.87
2019-04-07T22:10:20.516Z,4.40
2019-04-07T22:12:51.916Z,4.20
2019-04-07T22:15:22.654Z,4.87
2019-04-07T22:17:54.154Z,4.63
2019-04-07T22:20:25.058Z,4.03
2019-04-07T22:22:59.143Z,4.77
2019-04-07T22:25:32.612Z,5.33
2019-04-07T22:28:03.815Z,5.57
2019-04-07T22:30:40.124Z,4.87
2019-04-07T22:33:06.418Z,4.80
2019-04-07T22:35:41.344Z,6.60
2019-04-07T22:38:09.822Z,6.50
2019-04-07T22:40:39.806Z,5.50
2019-04-07T22:43:11.394Z,5.70
2019-04-07T22:45:53.170Z,5.70
2019-04-07T22:48:15.426Z,6.57
2019-04-07T22:50:49.998Z,5.80
2019-04-07T22:53:22.553Z,5.63
2019-04-07T22:55:52.710Z,6.83
2019-04-07T22:58:24.268Z,6.77
2019-04-07T23:00:54.452Z,6.07
2019-04-07T23:03:25.979Z,6.67
2019-04-07T23:05:57.516Z,7.33
2019-04-07T23:08:28.351Z,7.53
2019-04-07T23:10:58.375Z,7.87
2019-04-07T23:13:28.655Z,8.37
2019-04-07T23:16:09.015Z,8.93
2019-04-07T23:18:32.430Z,9.43
2019-04-07T23:21:03.107Z,9.63
2019-04-07T23:23:34.593Z,10.20
2019-04-07T23:26:05.482Z,11.70
2019-04-07T23:28:35.985Z,12.33
2019-04-07T23:31:07.505Z,11.80
2019-04-07T23:33:38.257Z,12.67
2019-04-07T23:36:08.201Z,13.40
2019-04-07T23:38:39.077Z,14.77
2019-04-07T23:41:09.626Z,16.00
2019-04-07T23:43:39.748Z,16.43
2019-04-07T23:46:20.675Z,17.63
2019-04-07T23:48:42.374Z,19.80
2019-04-07T23:51:12.896Z,18.90
2019-04-07T23:54:10.978Z,23.57
2019-04-07T23:56:43.630Z,22.83
2019-04-07T23:59:16.786Z,22.97
